Time;durP1;ratioP1;P1;durP2;ratioP2;P2;SDS_P1;SDS_P2;PMS_P1;PMS_P2;Temp;Humidity;BMP_temperature;BMP_pressure;BME280_temperature;BME280_humidity;BME280_pressure;Samples;Min_cycle;Max_cycle;Signal;HPM_P1;HPM_P2
2021/08/29 00:00:57;;;;;;;3.13;2.93;;;21.20;34.60;;;;;;5052384;28;20172;-69
2021/08/29 00:03:25;;;;;;;2.63;2.53;;;21.20;34.60;;;;;;5052568;28;20238;-69
2021/08/29 00:05:50;;;;;;;2.60;2.40;;;21.20;34.60;;;;;;5052488;28;20172;-69
2021/08/29 00:08:16;;;;;;;2.80;2.60;;;21.20;34.60;;;;;;5052200;28;20511;-69
2021/08/29 00:10:41;;;;;;;3.50;3.20;;;21.20;34.60;;;;;;5052111;28;20188;-69
2021/08/29 00:13:07;;;;;;;3.00;2.80;;;21.20;34.60;;;;;;5052421;28;20255;-70
2021/08/29 00:15:32;;;;;;;2.70;2.50;;;21.10;34.50;;;;;;5052157;28;20178;-69
2021/08/29 00:17:58;;;;;;;2.90;2.70;;;21.20;34.60;;;;;;5052343;28;20208;-69
2021/08/29 00:20:23;;;;;;;2.80;2.60;;;21.20;34.70;;;;;;5052100;28;20198;-69
2021/08/29 00:22:49;;;;;;;2.73;2.43;;;21.20;34.60;;;;;;5052220;28;20172;-69
2021/08/29 00:25:14;;;;;;;3.43;2.83;;;21.10;34.60;;;;;;5052113;28;20180;-70
2021/08/29 00:27:40;;;;;;;2.80;2.60;;;21.10;34.60;;;;;;5052193;28;20175;-70
2021/08/29 00:30:06;;;;;;;2.70;2.60;;;21.20;34.70;;;;;;5051682;28;20627;-69
2021/08/29 00:32:31;;;;;;;2.30;2.20;;;21.20;34.70;;;;;;5052145;28;20646;-69
2021/08/29 00:34:57;;;;;;;2.40;2.30;;;21.20;34.70;;;;;;5051904;28;20174;-68
2021/08/29 00:37:22;;;;;;;2.73;2.50;;;21.10;34.60;;;;;;5051997;28;20160;-69
2021/08/29 00:39:48;;;;;;;2.80;2.60;;;21.10;34.60;;;;;;5051655;28;20196;-68
2021/08/29 00:42:13;;;;;;;2.83;2.67;;;21.10;34.60;;;;;;5051875;28;20180;-68
2021/08/29 00:44:39;;;;;;;2.97;2.77;;;21.10;34.60;;;;;;5051864;28;20665;-69
2021/08/29 00:47:08;;;;;;;3.10;2.90;;;21.10;34.50;;;;;;5051595;28;20211;-69
2021/08/29 00:49:40;;;;;;;2.83;2.63;;;21.10;35.20;;;;;;5051433;28;20587;-68
2021/08/29 00:52:06;;;;;;;3.50;2.93;;;21.10;34.60;;;;;;5051765;28;20835;-69
2021/08/29 00:54:33;;;;;;;2.90;2.70;;;21.10;34.50;;;;;;5051723;28;20966;-69
2021/08/29 00:57:06;;;;;;;3.33;2.60;;;21.10;34.50;;;;;;5051749;28;20402;-69
2021/08/29 00:59:32;;;;;;;2.70;2.50;;;21.10;34.50;;;;;;5051058;28;20514;-69
2021/08/29 01:02:06;;;;;;;3.47;2.90;;;21.10;34.50;;;;;;5050444;28;20423;-69
2021/08/29 01:04:35;;;;;;;3.03;2.83;;;21.10;34.50;;;;;;5051654;28;20430;-69
2021/08/29 01:07:04;;;;;;;3.03;2.83;;;21.10;34.50;;;;;;5051670;28;20456;-68
2021/08/29 01:09:30;;;;;;;3.67;3.47;;;21.10;34.50;;;;;;5051154;28;20469;-68
2021/08/29 01:11:57;;;;;;;2.60;2.40;;;21.10;34.70;;;;;;5051426;28;20409;-68
2021/08/29 01:14:24;;;;;;;3.33;3.10;;;21.10;34.70;;;;;;5051575;28;20409;-69
2021/08/29 01:16:55;;;;;;;2.50;2.30;;;21.10;34.70;;;;;;5051423;28;20965;-68
2021/08/29 01:19:38;;;;;;;2.97;2.77;;;21.10;34.70;;;;;;5051500;28;20493;-69
2021/08/29 01:22:05;;;;;;;2.87;2.67;;;21.10;34.60;;;;;;5050403;28;20756;-68
2021/08/29 01:24:32;;;;;;;2.63;2.43;;;21.10;34.60;;;;;;5051428;28;20502;-68
2021/08/29 01:27:20;;;;;;;3.03;2.83;;;21.10;34.60;;;;;;5051428;28;20402;-69
2021/08/29 01:29:46;;;;;;;2.87;2.67;;;21.10;34.60;;;;;;5050813;28;20838;-68
2021/08/29 01:32:13;;;;;;;4.63;2.30;;;21.10;34.70;;;;;;5051395;28;20421;-69
2021/08/29 01:34:39;;;;;;;3.20;3.00;;;21.10;34.70;;;;;;5051406;28;20168;-68
2021/08/29 01:37:05;;;;;;;2.93;2.73;;;21.10;34.70;;;;;;5051401;28;20464;-69
2021/08/29 01:39:32;;;;;;;5.20;2.83;;;21.10;34.70;;;;;;5051117;28;20824;-68
2021/08/29 01:41:58;;;;;;;2.87;2.67;;;21.10;34.80;;;;;;5051352;28;20453;-68
2021/08/29 01:44:25;;;;;;;3.07;2.87;;;21.10;34.80;;;;;;5051370;28;20832;-68
2021/08/29 01:46:51;;;;;;;2.70;2.60;;;21.10;34.80;;;;;;5051042;28;20963;-69
2021/08/29 01:49:18;;;;;;;3.47;3.27;;;21.10;34.80;;;;;;5050923;28;20497;-69
2021/08/29 01:51:44;;;;;;;3.07;2.87;;;21.10;34.80;;;;;;5051157;28;20894;-69
2021/08/29 01:54:10;;;;;;;2.60;2.43;;;21.10;34.80;;;;;;5051178;28;20429;-69
2021/08/29 01:56:58;;;;;;;2.80;2.60;;;21.10;34.80;;;;;;5051017;28;20418;-69
2021/08/29 01:59:23;;;;;;;2.40;2.30;;;21.10;34.80;;;;;;5050841;28;20772;-69
2021/08/29 02:01:49;;;;;;;2.43;2.33;;;21.10;34.80;;;;;;5050908;28;20499;-69
2021/08/29 02:04:15;;;;;;;2.80;2.60;;;21.10;34.80;;;;;;5051115;28;20176;-68
2021/08/29 02:06:46;;;;;;;2.40;2.30;;;21.10;34.90;;;;;;5050912;28;20180;-69
2021/08/29 02:09:12;;;;;;;3.03;2.83;;;21.10;34.90;;;;;;5050837;28;20281;-69
2021/08/29 02:11:41;;;;;;;2.40;2.30;;;21.10;34.90;;;;;;5051267;28;20415;-69
2021/08/29 02:14:13;;;;;;;2.40;2.30;;;21.10;34.90;;;;;;5054615;28;20900;-69
2021/08/29 02:16:41;;;;;;;2.17;2.07;;;21.10;35.00;;;;;;5054321;28;20816;-69
2021/08/29 02:19:07;;;;;;;3.07;2.87;;;21.10;34.90;;;;;;5054209;28;20434;-69
2021/08/29 02:21:35;;;;;;;2.77;2.57;;;21.10;35.00;;;;;;5054376;28;20417;-69
2021/08/29 02:24:03;;;;;;;2.47;2.27;;;21.10;34.90;;;;;;5053461;28;20771;-69
2021/08/29 02:26:30;;;;;;;2.80;2.60;;;21.10;34.90;;;;;;5054346;28;20472;-69
2021/08/29 02:28:55;;;;;;;2.50;2.37;;;21.10;34.90;;;;;;5053897;28;20468;-68
2021/08/29 02:31:21;;;;;;;2.93;2.73;;;21.10;35.00;;;;;;5054326;28;20418;-68
2021/08/29 02:33:47;;;;;;;2.70;2.60;;;21.10;34.90;;;;;;5054302;28;20580;-68
2021/08/29 02:36:15;;;;;;;2.53;2.43;;;21.10;35.00;;;;;;5054124;28;20442;-68
2021/08/29 02:38:42;;;;;;;2.80;2.60;;;21.10;35.10;;;;;;5053911;28;20872;-68
2021/08/29 02:41:09;;;;;;;3.07;2.87;;;21.10;35.10;;;;;;5053987;28;20418;-68
2021/08/29 02:43:35;;;;;;;3.00;2.80;;;21.10;35.10;;;;;;5053897;28;20481;-68
2021/08/29 02:46:02;;;;;;;3.03;2.83;;;21.10;35.10;;;;;;5054051;28;20419;-68
2021/08/29 02:48:30;;;;;;;2.70;2.50;;;21.10;35.10;;;;;;5053459;28;20615;-68
2021/08/29 02:50:56;;;;;;;2.57;2.47;;;21.00;35.10;;;;;;5053812;28;20448;-68
2021/08/29 02:53:22;;;;;;;2.83;2.63;;;21.10;35.20;;;;;;5053848;28;20430;-68
2021/08/29 02:55:54;;;;;;;2.60;2.50;;;21.10;35.20;;;;;;5053782;28;20901;-68
2021/08/29 02:58:19;;;;;;;2.70;2.60;;;21.10;35.20;;;;;;5053663;28;20415;-68
2021/08/29 03:00:45;;;;;;;2.53;2.43;;;21.10;35.20;;;;;;5053601;28;20932;-69
2021/08/29 03:03:12;;;;;;;2.60;2.40;;;21.10;35.20;;;;;;5053636;28;20219;-68
2021/08/29 03:05:38;;;;;;;2.43;2.27;;;21.10;35.20;;;;;;5053607;28;20180;-68
2021/08/29 03:08:04;;;;;;;2.53;2.43;;;21.10;35.90;;;;;;5053241;28;21018;-69
2021/08/29 03:10:30;;;;;;;2.47;2.37;;;21.00;35.10;;;;;;5053443;28;20778;-69
2021/08/29 03:12:57;;;;;;;3.00;2.80;;;21.10;35.30;;;;;;5053358;28;20191;-69
2021/08/29 03:15:23;;;;;;;3.23;2.97;;;21.00;35.10;;;;;;5053510;28;20472;-69
2021/08/29 03:17:49;;;;;;;2.60;2.50;;;21.10;35.20;;;;;;5053424;28;20446;-69
2021/08/29 03:20:15;;;;;;;3.00;2.63;;;21.10;35.30;;;;;;5053129;28;20466;-69
2021/08/29 03:22:42;;;;;;;2.50;2.40;;;21.10;35.30;;;;;;5053253;28;20176;-69
2021/08/29 03:25:08;;;;;;;2.57;2.37;;;21.10;35.30;;;;;;5053253;28;20794;-69
2021/08/29 03:27:34;;;;;;;2.43;2.33;;;21.00;35.20;;;;;;5053122;28;20415;-69
2021/08/29 03:30:00;;;;;;;2.80;2.60;;;21.10;35.40;;;;;;5052880;28;20466;-69
2021/08/29 03:32:25;;;;;;;2.50;2.40;;;21.00;35.30;;;;;;5053208;28;20176;-69
2021/08/29 03:35:03;;;;;;;2.37;2.23;;;21.10;35.30;;;;;;5052955;28;20180;-69
2021/08/29 03:37:28;;;;;;;2.33;2.23;;;21.00;35.30;;;;;;5053118;28;20179;-69
2021/08/29 03:39:56;;;;;;;2.40;2.30;;;21.00;35.40;;;;;;5052553;28;20943;-69
2021/08/29 03:42:23;;;;;;;2.80;2.60;;;21.10;35.40;;;;;;5053040;28;20180;-69
2021/08/29 03:44:49;;;;;;;3.03;2.83;;;21.10;35.40;;;;;;5052918;28;20411;-69
2021/08/29 03:47:15;;;;;;;2.50;2.40;;;21.10;35.40;;;;;;5051948;28;20993;-69
2021/08/29 03:49:41;;;;;;;2.40;2.23;;;21.10;35.50;;;;;;5050493;28;20700;-69
2021/08/29 03:52:08;;;;;;;2.70;2.50;;;21.10;35.40;;;;;;5049513;28;20183;-69
2021/08/29 03:54:34;;;;;;;4.97;2.83;;;21.00;35.40;;;;;;5050429;28;20602;-69
2021/08/29 03:57:00;;;;;;;2.93;2.73;;;21.00;36.20;;;;;;5050869;28;20442;-69
2021/08/29 03:59:25;;;;;;;2.97;2.77;;;21.00;35.50;;;;;;5050620;28;20484;-69
2021/08/29 04:01:51;;;;;;;3.07;2.87;;;21.00;35.50;;;;;;5052045;28;20768;-69
2021/08/29 04:04:17;;;;;;;3.70;2.47;;;21.00;35.50;;;;;;5052481;28;20259;-69
2021/08/29 04:06:45;;;;;;;2.77;2.57;;;21.00;35.40;;;;;;5049981;28;20180;-67
2021/08/29 04:09:14;;;;;;;2.70;2.50;;;21.00;35.50;;;;;;5051652;28;20880;-67
2021/08/29 04:11:43;;;;;;;2.43;2.33;;;21.00;35.40;;;;;;5052355;28;20410;-66
2021/08/29 04:14:12;;;;;;;3.10;2.90;;;21.00;35.40;;;;;;5051922;28;20417;-67
2021/08/29 04:16:39;;;;;;;2.77;2.57;;;21.00;35.50;;;;;;5052220;28;20417;-69
2021/08/29 04:19:05;;;;;;;3.00;2.80;;;21.00;35.50;;;;;;5044127;28;20437;-66
2021/08/29 04:21:31;;;;;;;2.40;2.30;;;21.00;35.60;;;;;;4995445;28;20444;-66
2021/08/29 04:23:57;;;;;;;2.60;2.50;;;21.00;35.60;;;;;;4993923;28;20436;-68
2021/08/29 04:26:23;;;;;;;2.90;2.70;;;21.00;35.60;;;;;;4995790;28;20447;-68
2021/08/29 04:28:49;;;;;;;2.97;2.87;;;21.00;35.60;;;;;;4993297;28;20221;-67
2021/08/29 04:31:29;;;;;;;2.53;2.40;;;21.00;35.70;;;;;;4995418;28;20512;-69
2021/08/29 04:33:54;;;;;;;2.60;2.40;;;21.00;35.70;;;;;;4994102;28;20450;-69
2021/08/29 04:36:20;;;;;;;2.77;2.50;;;21.00;35.70;;;;;;4994527;28;20584;-67
2021/08/29 04:38:46;;;;;;;2.57;2.40;;;21.00;35.70;;;;;;4993631;28;20228;-70
2021/08/29 04:41:12;;;;;;;2.40;2.30;;;21.00;35.70;;;;;;4995320;28;20236;-71
2021/08/29 04:43:37;;;;;;;3.07;2.87;;;21.00;35.80;;;;;;4993975;28;20260;-67
2021/08/29 04:46:04;;;;;;;2.70;2.60;;;21.00;35.80;;;;;;4995088;28;20660;-70
2021/08/29 04:48:31;;;;;;;3.87;2.40;;;21.00;35.80;;;;;;4994028;28;20302;-74
2021/08/29 04:50:57;;;;;;;2.60;2.50;;;21.00;35.90;;;;;;4994927;28;20496;-73
2021/08/29 04:53:23;;;;;;;2.17;1.97;;;21.00;35.90;;;;;;4994176;28;20448;-70
2021/08/29 04:55:48;;;;;;;2.30;2.20;;;21.00;35.90;;;;;;4995093;28;20534;-72
2021/08/29 04:58:14;;;;;;;2.40;2.30;;;21.00;36.10;;;;;;4993743;28;20323;-70
2021/08/29 05:00:39;;;;;;;5.27;2.57;;;21.00;36.00;;;;;;4978517;28;20635;-72
2021/08/29 05:03:05;;;;;;;2.70;2.50;;;21.00;36.00;;;;;;4974211;28;20280;-69
2021/08/29 05:05:30;;;;;;;2.60;2.50;;;21.00;36.00;;;;;;4975733;28;20222;-69
2021/08/29 05:07:56;;;;;;;3.13;2.93;;;21.00;35.90;;;;;;4976688;28;20225;-69
2021/08/29 05:10:21;;;;;;;2.40;2.20;;;21.00;35.90;;;;;;4992347;28;20248;-70
2021/08/29 05:12:47;;;;;;;2.47;2.37;;;21.00;36.00;;;;;;4973197;28;20716;-69
2021/08/29 05:15:12;;;;;;;2.90;2.70;;;21.00;35.90;;;;;;4974966;28;20232;-69
2021/08/29 05:17:38;;;;;;;2.87;2.67;;;21.00;35.90;;;;;;4974304;28;20680;-69
2021/08/29 05:20:05;;;;;;;2.43;2.33;;;21.00;36.00;;;;;;4974984;28;20283;-68
2021/08/29 05:22:30;;;;;;;2.80;2.60;;;21.00;36.70;;;;;;4974125;28;20221;-70
2021/08/29 05:24:56;;;;;;;2.90;2.70;;;21.00;35.90;;;;;;4976218;28;20460;-68
2021/08/29 05:27:21;;;;;;;2.93;2.70;;;21.00;35.90;;;;;;4974020;28;20232;-69
2021/08/29 05:29:47;;;;;;;3.10;2.80;;;21.00;35.90;;;;;;4974994;28;20316;-67
2021/08/29 05:32:12;;;;;;;3.13;2.63;;;21.00;36.00;;;;;;4973984;28;20229;-66
2021/08/29 05:34:38;;;;;;;3.17;2.77;;;21.00;36.00;;;;;;4975205;28;20235;-69
2021/08/29 05:37:04;;;;;;;2.50;2.30;;;21.00;36.00;;;;;;4973923;28;20241;-66
2021/08/29 05:39:29;;;;;;;3.20;3.00;;;21.00;35.90;;;;;;4975120;28;20230;-67
2021/08/29 05:41:55;;;;;;;2.63;2.53;;;21.00;36.00;;;;;;4973988;28;20319;-67
2021/08/29 05:44:20;;;;;;;2.97;2.67;;;21.00;36.00;;;;;;4975636;28;20315;-68
2021/08/29 05:46:46;;;;;;;2.67;2.47;;;21.00;36.00;;;;;;4974627;28;20234;-66
2021/08/29 05:49:11;;;;;;;2.90;2.70;;;21.00;36.00;;;;;;4978410;28;20229;-67
2021/08/29 05:51:37;;;;;;;2.70;2.40;;;21.00;36.00;;;;;;4977292;28;20237;-68
2021/08/29 05:54:03;;;;;;;3.27;3.07;;;21.00;36.00;;;;;;4978726;28;20711;-66
2021/08/29 05:56:28;;;;;;;2.80;2.67;;;21.00;36.00;;;;;;4977300;28;20621;-67
2021/08/29 05:58:54;;;;;;;2.93;2.53;;;21.00;36.10;;;;;;4978258;28;20706;-69
2021/08/29 06:01:19;;;;;;;2.60;2.40;;;21.00;36.00;;;;;;4977263;28;20275;-69
2021/08/29 06:03:45;;;;;;;2.53;2.40;;;21.00;36.00;;;;;;4978520;28;20226;-70
2021/08/29 06:06:11;;;;;;;2.57;2.37;;;21.00;36.20;;;;;;4977166;28;20229;-66
2021/08/29 06:08:36;;;;;;;2.40;2.20;;;21.00;36.00;;;;;;4978116;28;20248;-67
2021/08/29 06:11:03;;;;;;;2.60;2.40;;;21.00;36.00;;;;;;4977523;28;20850;-65
2021/08/29 06:13:29;;;;;;;2.70;2.50;;;20.90;36.00;;;;;;4979243;28;20257;-69
2021/08/29 06:15:55;;;;;;;2.63;2.40;;;20.90;36.00;;;;;;4977577;28;20493;-66
2021/08/29 06:18:20;;;;;;;2.37;2.03;;;20.90;36.00;;;;;;4977932;28;20595;-70
2021/08/29 06:20:46;;;;;;;2.77;2.53;;;21.00;36.20;;;;;;4976983;28;20233;-68
2021/08/29 06:23:11;;;;;;;2.73;2.53;;;20.90;36.10;;;;;;4978359;28;20680;-71
2021/08/29 06:25:37;;;;;;;2.37;2.17;;;20.90;36.20;;;;;;4976815;28;20230;-67
2021/08/29 06:28:03;;;;;;;2.93;2.73;;;20.90;36.30;;;;;;4978357;28;20222;-66
2021/08/29 06:30:29;;;;;;;1.97;1.87;;;21.00;36.40;;;;;;4978694;28;20800;-66
2021/08/29 06:32:55;;;;;;;2.33;2.13;;;21.00;36.50;;;;;;4976269;28;20255;-68
2021/08/29 06:35:20;;;;;;;2.20;2.10;;;21.00;36.60;;;;;;4978625;28;21185;-65
2021/08/29 06:37:46;;;;;;;2.00;1.80;;;21.00;36.60;;;;;;4976564;28;20256;-66
2021/08/29 06:40:12;;;;;;;2.40;2.20;;;21.00;36.60;;;;;;4978826;28;20230;-68
2021/08/29 06:42:37;;;;;;;2.30;2.10;;;21.00;36.60;;;;;;4976266;28;20221;-68
2021/08/29 06:45:03;;;;;;;2.30;1.90;;;21.00;36.60;;;;;;4978375;28;20499;-66
2021/08/29 06:47:29;;;;;;;2.47;2.30;;;21.00;36.70;;;;;;4976341;28;20298;-67
2021/08/29 06:49:54;;;;;;;2.43;2.23;;;21.00;36.80;;;;;;4977607;28;20244;-66
2021/08/29 06:52:20;;;;;;;2.17;1.90;;;21.00;36.80;;;;;;4976595;28;20229;-65
2021/08/29 06:54:45;;;;;;;2.50;2.30;;;21.00;36.90;;;;;;4978010;28;20283;-65
2021/08/29 06:57:11;;;;;;;1.80;1.70;;;21.00;36.80;;;;;;4975838;28;20615;-68
2021/08/29 06:59:36;;;;;;;2.03;1.93;;;21.00;36.90;;;;;;4977019;28;20236;-69
2021/08/29 07:02:02;;;;;;;2.10;2.00;;;21.00;37.00;;;;;;4976086;28;20238;-66
2021/08/29 07:04:28;;;;;;;2.23;2.13;;;21.00;36.90;;;;;;4977446;28;20225;-67
2021/08/29 07:06:53;;;;;;;2.37;1.90;;;21.00;37.00;;;;;;4976279;28;20236;-66
2021/08/29 07:09:19;;;;;;;2.10;2.00;;;21.00;37.00;;;;;;4977326;28;20230;-70
2021/08/29 07:11:44;;;;;;;1.90;1.80;;;21.00;37.00;;;;;;4976809;28;20229;-64
2021/08/29 07:14:10;;;;;;;2.13;2.03;;;21.00;37.10;;;;;;4996044;28;20275;-66
2021/08/29 07:16:35;;;;;;;2.40;2.20;;;21.00;37.10;;;;;;4996636;28;20225;-69
2021/08/29 07:19:01;;;;;;;2.03;1.87;;;21.00;37.00;;;;;;4995013;28;20256;-68
2021/08/29 07:21:26;;;;;;;2.00;1.90;;;21.00;36.90;;;;;;4995652;28;20255;-66
2021/08/29 07:23:52;;;;;;;1.70;1.60;;;21.00;36.80;;;;;;4995591;28;20335;-67
2021/08/29 07:26:18;;;;;;;1.40;1.40;;;21.00;36.40;;;;;;4996759;28;20263;-64
2021/08/29 07:28:44;;;;;;;2.93;1.33;;;21.00;36.20;;;;;;4995520;28;20241;-64
2021/08/29 07:31:10;;;;;;;1.93;1.63;;;21.00;36.00;;;;;;4999590;28;20239;-67
2021/08/29 07:33:36;;;;;;;1.77;1.60;;;21.00;36.00;;;;;;5010399;28;20486;-67
2021/08/29 07:36:02;;;;;;;1.60;1.50;;;20.90;36.10;;;;;;5015677;28;21122;-68
2021/08/29 07:38:28;;;;;;;1.60;1.50;;;21.00;36.30;;;;;;5016904;28;20235;-65
2021/08/29 07:40:53;;;;;;;2.03;1.60;;;20.90;36.40;;;;;;5011119;28;20643;-67
2021/08/29 07:43:19;;;;;;;1.60;1.50;;;20.90;37.10;;;;;;5009812;28;20228;-66
2021/08/29 07:45:44;;;;;;;2.60;1.73;;;20.90;36.40;;;;;;5016448;28;20712;-65
2021/08/29 07:48:10;;;;;;;1.80;1.70;;;20.90;36.40;;;;;;5016154;28;20228;-69
2021/08/29 07:50:36;;;;;;;1.30;1.17;;;20.90;36.60;;;;;;5015098;28;20220;-66
2021/08/29 07:53:01;;;;;;;1.73;1.63;;;20.90;36.60;;;;;;5016684;28;20220;-64
2021/08/29 07:55:27;;;;;;;1.60;1.50;;;20.90;36.50;;;;;;5016411;28;20447;-65
2021/08/29 07:57:53;;;;;;;1.60;1.50;;;20.90;36.50;;;;;;5015463;28;20227;-67
2021/08/29 08:00:19;;;;;;;2.00;1.90;;;20.90;36.50;;;;;;5016584;28;20224;-65
2021/08/29 08:02:44;;;;;;;2.50;2.00;;;20.90;36.50;;;;;;5016252;28;20231;-65
2021/08/29 08:05:10;;;;;;;1.40;1.40;;;20.90;36.50;;;;;;5018160;28;20957;-67
2021/08/29 08:07:35;;;;;;;2.47;1.90;;;20.90;36.60;;;;;;5015769;28;20934;-64
2021/08/29 08:10:01;;;;;;;1.70;1.60;;;20.90;36.60;;;;;;5014947;28;20243;-67
2021/08/29 08:12:26;;;;;;;2.60;1.90;;;20.90;36.60;;;;;;5016541;28;20228;-66
2021/08/29 08:14:52;;;;;;;2.17;1.50;;;20.90;36.60;;;;;;5014803;28;20862;-67
2021/08/29 08:17:17;;;;;;;1.43;1.33;;;20.90;36.60;;;;;;5015880;28;20613;-67
2021/08/29 08:19:43;;;;;;;2.00;1.90;;;20.90;36.60;;;;;;5013941;28;20231;-67
2021/08/29 08:22:08;;;;;;;1.87;1.77;;;20.90;36.70;;;;;;5010795;28;20268;-66
2021/08/29 08:24:34;;;;;;;2.17;1.90;;;20.90;36.60;;;;;;5005836;28;20316;-66
2021/08/29 08:27:00;;;;;;;2.10;1.80;;;21.00;36.80;;;;;;5007435;28;20209;-65
2021/08/29 08:29:26;;;;;;;2.00;1.90;;;20.90;37.40;;;;;;5011828;28;20233;-66
2021/08/29 08:31:52;;;;;;;1.77;1.50;;;20.90;36.80;;;;;;4997380;28;20722;-67
2021/08/29 08:34:18;;;;;;;2.20;1.80;;;21.00;36.90;;;;;;4994554;28;20480;-66
2021/08/29 08:36:43;;;;;;;2.23;2.03;;;20.90;36.80;;;;;;4995493;28;20448;-65
2021/08/29 08:39:09;;;;;;;2.13;1.93;;;21.00;36.80;;;;;;4994784;28;20836;-65
2021/08/29 08:41:34;;;;;;;2.40;2.10;;;21.00;36.90;;;;;;4994675;28;20264;-65
2021/08/29 08:44:00;;;;;;;2.27;2.17;;;21.00;37.00;;;;;;4995285;28;20267;-65
2021/08/29 08:46:26;;;;;;;1.60;1.50;;;21.00;37.00;;;;;;4994006;28;20256;-67
2021/08/29 08:48:52;;;;;;;1.70;1.60;;;21.00;37.10;;;;;;4995186;28;20291;-64
2021/08/29 08:51:25;;;;;;;2.17;1.47;;;21.00;37.00;;;;;;4994150;28;20448;-65
2021/08/29 08:53:52;;;;;;;2.40;1.60;;;21.00;37.20;;;;;;4995007;28;20224;-65
2021/08/29 08:56:19;;;;;;;2.27;2.10;;;21.00;37.40;;;;;;4994290;28;20452;-66
2021/08/29 08:58:45;;;;;;;3.10;1.87;;;20.90;37.40;;;;;;4994826;28;20459;-65
2021/08/29 09:01:10;;;;;;;4.30;1.93;;;21.00;37.50;;;;;;4993693;28;20480;-67
2021/08/29 09:03:38;;;;;;;2.37;1.47;;;21.00;37.60;;;;;;4995163;28;20873;-67
2021/08/29 09:06:05;;;;;;;2.10;2.00;;;21.00;37.50;;;;;;4993991;28;20232;-67
2021/08/29 09:08:33;;;;;;;4.17;2.30;;;21.00;37.40;;;;;;4995464;28;20471;-65
2021/08/29 09:10:59;;;;;;;1.50;1.40;;;21.00;37.60;;;;;;4993956;28;20531;-66
2021/08/29 09:13:24;;;;;;;2.30;2.03;;;21.00;37.60;;;;;;4995453;28;20536;-66
2021/08/29 09:15:50;;;;;;;1.83;1.70;;;21.00;37.60;;;;;;4993819;28;20252;-65
2021/08/29 09:18:15;;;;;;;2.63;1.80;;;21.00;37.60;;;;;;4995230;28;20221;-65
2021/08/29 09:20:41;;;;;;;2.77;2.03;;;21.00;37.60;;;;;;4994553;28;20604;-71
2021/08/29 09:23:11;;;;;;;2.17;2.07;;;21.00;37.40;;;;;;4998976;28;20252;-70
2021/08/29 09:25:41;;;;;;;1.70;1.60;;;21.00;37.50;;;;;;4997484;28;20233;-70
2021/08/29 09:28:12;;;;;;;1.90;1.80;;;21.00;37.70;;;;;;4999049;28;20458;-70
2021/08/29 09:30:45;;;;;;;1.80;1.70;;;21.00;37.70;;;;;;4997425;28;20545;-71
2021/08/29 09:33:11;;;;;;;1.70;1.60;;;21.00;37.70;;;;;;4999055;28;20451;-69
2021/08/29 09:35:37;;;;;;;1.70;1.60;;;21.00;37.40;;;;;;4997443;28;20549;-69
2021/08/29 09:38:05;;;;;;;2.03;1.93;;;21.00;37.30;;;;;;4998717;28;20471;-69
2021/08/29 09:40:36;;;;;;;3.17;1.60;;;21.00;37.30;;;;;;4997318;28;20444;-70
2021/08/29 09:43:04;;;;;;;3.10;1.80;;;21.00;37.40;;;;;;4999431;28;20440;-70
2021/08/29 09:45:37;;;;;;;1.63;1.53;;;21.10;37.40;;;;;;4997323;28;20628;-70
2021/08/29 09:48:08;;;;;;;1.70;1.60;;;21.00;37.30;;;;;;4998122;28;21086;-70
2021/08/29 09:50:36;;;;;;;2.13;1.93;;;21.00;37.40;;;;;;4997612;28;20536;-70
2021/08/29 09:53:04;;;;;;;1.80;1.70;;;21.10;37.60;;;;;;4998723;28;20444;-72
2021/08/29 09:55:36;;;;;;;1.80;1.70;;;21.10;37.70;;;;;;4997276;28;20521;-72
2021/08/29 09:58:26;;;;;;;1.87;1.57;;;21.10;37.70;;;;;;4998096;28;20471;-69
2021/08/29 10:01:08;;;;;;;2.17;1.60;;;21.10;37.80;;;;;;4997816;28;20509;-73
2021/08/29 10:03:35;;;;;;;1.60;1.50;;;21.10;37.80;;;;;;4997950;28;20444;-66
2021/08/29 10:06:16;;;;;;;2.27;2.07;;;21.10;37.90;;;;;;4997533;28;20444;-68
2021/08/29 10:08:44;;;;;;;1.90;1.80;;;21.10;38.00;;;;;;4999014;28;20562;-66
2021/08/29 10:11:10;;;;;;;1.53;1.43;;;21.10;38.00;;;;;;4997671;28;20447;-66
2021/08/29 10:13:38;;;;;;;1.63;1.53;;;21.10;38.10;;;;;;4998882;28;20547;-68
2021/08/29 10:16:05;;;;;;;2.20;2.00;;;21.10;38.10;;;;;;4998330;28;20444;-68
2021/08/29 10:18:36;;;;;;;1.87;1.77;;;21.10;38.10;;;;;;4997427;28;20920;-67
2021/08/29 10:21:02;;;;;;;2.40;1.77;;;21.10;38.10;;;;;;4998657;28;20595;-66
2021/08/29 10:23:28;;;;;;;2.20;1.83;;;21.10;38.10;;;;;;5009479;28;20470;-68
2021/08/29 10:25:56;;;;;;;1.67;1.57;;;21.10;38.10;;;;;;5017636;28;20458;-68
2021/08/29 10:28:26;;;;;;;2.20;1.60;;;21.10;38.00;;;;;;5016717;28;20474;-69
2021/08/29 10:30:55;;;;;;;2.50;1.70;;;21.10;38.10;;;;;;5019839;28;20465;-66
2021/08/29 10:33:22;;;;;;;1.90;1.80;;;21.10;38.10;;;;;;5017795;28;20866;-66
2021/08/29 10:35:49;;;;;;;3.67;1.67;;;21.10;38.00;;;;;;5020528;28;20977;-64
2021/08/29 10:38:17;;;;;;;1.87;1.77;;;21.10;37.80;;;;;;5017833;28;20495;-67
2021/08/29 10:40:46;;;;;;;2.73;2.53;;;21.10;37.80;;;;;;5020266;28;20451;-68
2021/08/29 10:43:14;;;;;;;3.80;2.27;;;21.10;38.20;;;;;;5010570;28;20444;-68
2021/08/29 10:45:40;;;;;;;3.43;2.53;;;21.10;38.20;;;;;;5008317;28;20538;-65
2021/08/29 10:48:09;;;;;;;2.90;2.70;;;21.10;38.20;;;;;;5008894;28;20505;-66
2021/08/29 10:50:36;;;;;;;3.70;3.40;;;21.10;38.30;;;;;;5007421;28;20456;-67
2021/08/29 10:53:21;;;;;;;8.37;3.50;;;21.10;38.50;;;;;;5007027;28;20432;-67
2021/08/29 10:55:47;;;;;;;3.90;2.80;;;21.20;38.80;;;;;;5008066;28;20688;-69
2021/08/29 10:58:20;;;;;;;4.00;2.97;;;21.20;38.50;;;;;;5006650;28;20440;-70
2021/08/29 11:00:46;;;;;;;2.70;2.50;;;21.20;38.50;;;;;;5008998;28;20228;-67
2021/08/29 11:03:40;;;;;;;3.40;3.10;;;21.10;38.60;;;;;;5006745;28;20796;-68
2021/08/29 11:06:06;;;;;;;3.17;2.90;;;21.20;38.70;;;;;;4999845;28;20271;-67
2021/08/29 11:08:31;;;;;;;3.30;3.10;;;21.20;39.40;;;;;;4995311;28;20460;-70
2021/08/29 11:10:57;;;;;;;3.17;2.87;;;21.20;39.50;;;;;;4997761;28;20213;-70
2021/08/29 11:13:29;;;;;;;8.10;3.67;;;21.30;39.60;;;;;;4995401;28;20722;-70
2021/08/29 11:16:13;;;;;;;2.80;2.60;;;21.30;39.40;;;;;;4997444;28;20444;-70
2021/08/29 11:19:03;;;;;;;2.53;2.33;;;21.30;39.30;;;;;;4995991;28;20486;-70
2021/08/29 11:21:34;;;;;;;3.10;2.90;;;21.30;39.10;;;;;;5012882;28;20520;-70
2021/08/29 11:24:01;;;;;;;2.90;2.70;;;21.30;39.70;;;;;;5016848;28;21399;-70
2021/08/29 11:26:31;;;;;;;4.50;4.10;;;21.30;39.90;;;;;;5015841;28;21034;-70
2021/08/29 11:28:57;;;;;;;5.70;5.10;;;21.30;40.50;;;;;;5016278;28;20455;-70
2021/08/29 11:31:51;;;;;;;51.07;45.60;;;21.30;41.00;;;;;;5015408;28;20469;-70
2021/08/29 11:34:17;;;;;;;75.17;63.43;;;21.40;42.10;;;;;;5015549;28;20251;-69
2021/08/29 11:36:43;;;;;;;68.33;53.20;;;21.40;42.80;;;;;;5017074;28;20443;-70
2021/08/29 11:39:58;;;;;;;60.33;52.03;;;21.40;43.90;;;;;;5014565;28;20826;-70
2021/08/29 11:42:23;;;;;;;290.63;250.83;;;21.40;44.60;;;;;;4992696;28;20232;-70
2021/08/29 11:44:49;;;;;;;222.57;199.00;;;21.40;44.90;;;;;;4993387;28;20452;-69
2021/08/29 11:47:15;;;;;;;193.90;163.83;;;21.50;45.30;;;;;;5004399;28;20232;-69
2021/08/29 11:49:41;;;;;;;180.73;155.53;;;21.50;45.70;;;;;;5016584;28;20961;-70
2021/08/29 11:52:07;;;;;;;161.13;134.80;;;21.50;45.70;;;;;;5014602;28;20228;-70
2021/08/29 11:54:33;;;;;;;142.23;126.87;;;21.50;45.50;;;;;;5016356;28;20470;-70
2021/08/29 11:56:59;;;;;;;139.60;122.47;;;21.50;45.30;;;;;;5015106;28;20961;-70
2021/08/29 11:59:33;;;;;;;134.30;120.10;;;21.50;45.10;;;;;;5015706;28;20459;-70
2021/08/29 12:02:00;;;;;;;126.70;113.60;;;21.60;44.90;;;;;;5014317;28;20454;-70
2021/08/29 12:04:26;;;;;;;122.90;110.40;;;21.60;44.80;;;;;;5016425;28;20447;-70
2021/08/29 12:07:00;;;;;;;119.13;106.67;;;21.60;44.60;;;;;;5016205;28;20496;-70
2021/08/29 12:09:41;;;;;;;111.20;99.00;;;21.60;45.20;;;;;;5012108;28;20479;-70
2021/08/29 12:12:07;;;;;;;106.60;95.20;;;21.60;44.30;;;;;;5012681;28;20463;-70
2021/08/29 12:14:33;;;;;;;95.93;85.80;;;21.60;44.20;;;;;;5008194;28;20486;-68
2021/08/29 12:17:02;;;;;;;92.23;82.70;;;21.60;44.20;;;;;;5007403;28;20546;-67
2021/08/29 12:19:36;;;;;;;91.70;82.40;;;21.60;44.80;;;;;;4995948;28;20448;-70
2021/08/29 12:22:08;;;;;;;83.20;75.17;;;21.60;43.80;;;;;;5006059;28;21029;-70
2021/08/29 12:24:36;;;;;;;76.33;68.70;;;21.60;43.70;;;;;;5007389;28;20961;-71
2021/08/29 12:27:06;;;;;;;70.53;63.37;;;21.60;43.80;;;;;;5010075;28;20501;-70
2021/08/29 12:29:48;;;;;;;68.17;61.17;;;21.60;43.90;;;;;;5011688;28;20467;-70
2021/08/29 12:32:17;;;;;;;66.53;58.13;;;21.60;43.90;;;;;;5016391;28;20454;-70
2021/08/29 12:34:49;;;;;;;64.23;54.40;;;21.60;43.70;;;;;;5016042;28;20602;-68
2021/08/29 12:37:14;;;;;;;56.53;50.33;;;21.60;43.80;;;;;;5014914;28;20671;-68
2021/08/29 12:39:41;;;;;;;54.40;48.90;;;21.60;43.70;;;;;;5016979;28;20520;-68
2021/08/29 12:42:17;;;;;;;51.47;46.53;;;21.60;43.70;;;;;;5014385;28;20225;-68
2021/08/29 12:44:43;;;;;;;49.77;44.97;;;21.60;43.40;;;;;;5015979;28;20458;-68